Huvudsida
METAR-TAF:

METAR-TAF

Flygplatser :

Sandnessjøens flygplats. Stokka

Sandnessjøen, Norge

latitud: 65-58N, longitud: 012-28E, höjd: 1 m

Aktuellt väderrapport

Denna rapport gjordes för 1 timme och 18 minuter sedan, klockan 23:50 UTC
Vind 19 kt från syd
Temperatur 7°C
Fuktighet 100%
Tryck 1019 hPa
Sikt 10 km eller mer
Spridda moln på en höjd av 500 ft
Brutna moln på en höjd av 800 ft
lätt regn, duggregn

METAR: ENST 202350Z 19019KT 9999 -RADZ SCT005 BKN008 07/07 Q1019 RERADZ RMK WIND 300FT 20022KT

Tid: 03:08 (01:08 UTC)


TAF: saknas

Aktuella väderrapporter och prognoser från 4000 flygplatser (METAR- och TAF-rapporter).

De tillgängliga stationerna syns som gula och röda prickar på kartan.

För musen över prickarna för att se namnen på stationerna.

Klicka sedan för att få väderrapporter och prognoser.

För att ändra kartan: Klicka på de gröna knapparna med ett svart kors på för att zooma in; den gröna knappen med ett streck på för att zooma ut; eller på de gröna pilarna för angränsande kartor.


METAR-TAF: